sensor_id;sensor_type;location;lat;lon;timestamp;temperature;humidity
81161;DHT22;70637;48.514;14.500;2023-07-20T00:00:26;22.90;53.30
81161;DHT22;70637;48.514;14.500;2023-07-20T00:02:51;22.90;53.40
81161;DHT22;70637;48.514;14.500;2023-07-20T00:05:17;22.80;52.50
81161;DHT22;70637;48.514;14.500;2023-07-20T00:07:50;22.80;52.00
81161;DHT22;70637;48.514;14.500;2023-07-20T00:10:17;22.70;51.50
81161;DHT22;70637;48.514;14.500;2023-07-20T00:12:43;22.60;51.80
81161;DHT22;70637;48.514;14.500;2023-07-20T00:15:13;22.40;51.60
81161;DHT22;70637;48.514;14.500;2023-07-20T00:17:39;22.50;52.00
81161;DHT22;70637;48.514;14.500;2023-07-20T00:20:06;22.60;52.20
81161;DHT22;70637;48.514;14.500;2023-07-20T00:22:32;22.60;51.70
81161;DHT22;70637;48.514;14.500;2023-07-20T00:24:57;22.60;51.00
81161;DHT22;70637;48.514;14.500;2023-07-20T00:27:23;22.70;51.70
81161;DHT22;70637;48.514;14.500;2023-07-20T00:29:48;22.60;52.20
81161;DHT22;70637;48.514;14.500;2023-07-20T00:32:14;22.60;52.20
81161;DHT22;70637;48.514;14.500;2023-07-20T00:34:40;22.60;52.60
81161;DHT22;70637;48.514;14.500;2023-07-20T00:37:05;22.70;52.60
81161;DHT22;70637;48.514;14.500;2023-07-20T00:39:31;22.60;52.80
81161;DHT22;70637;48.514;14.500;2023-07-20T00:41:57;22.60;52.90
81161;DHT22;70637;48.514;14.500;2023-07-20T00:44:23;22.60;53.10
81161;DHT22;70637;48.514;14.500;2023-07-20T00:46:49;22.60;53.40
81161;DHT22;70637;48.514;14.500;2023-07-20T00:49:16;22.60;53.50
81161;DHT22;70637;48.514;14.500;2023-07-20T00:51:42;22.60;53.80
81161;DHT22;70637;48.514;14.500;2023-07-20T00:54:07;22.60;53.60
81161;DHT22;70637;48.514;14.500;2023-07-20T00:56:33;22.60;53.60
81161;DHT22;70637;48.514;14.500;2023-07-20T00:58:59;22.60;53.70
81161;DHT22;70637;48.514;14.500;2023-07-20T01:01:25;22.60;53.80
81161;DHT22;70637;48.514;14.500;2023-07-20T01:03:50;22.50;53.90
81161;DHT22;70637;48.514;14.500;2023-07-20T01:06:26;22.50;54.30
81161;DHT22;70637;48.514;14.500;2023-07-20T01:11:52;22.50;54.70
81161;DHT22;70637;48.514;14.500;2023-07-20T01:14:21;22.50;54.90
81161;DHT22;70637;48.514;14.500;2023-07-20T01:16:48;22.50;54.80
81161;DHT22;70637;48.514;14.500;2023-07-20T01:19:15;22.50;54.80
81161;DHT22;70637;48.514;14.500;2023-07-20T01:22:03;22.40;55.00
81161;DHT22;70637;48.514;14.500;2023-07-20T01:30:45;22.20;55.40
81161;DHT22;70637;48.514;14.500;2023-07-20T01:33:15;22.10;55.90
81161;DHT22;70637;48.514;14.500;2023-07-20T01:35:41;22.10;56.00
81161;DHT22;70637;48.514;14.500;2023-07-20T01:38:10;22.10;56.00
81161;DHT22;70637;48.514;14.500;2023-07-20T01:40:37;22.10;56.10
81161;DHT22;70637;48.514;14.500;2023-07-20T01:43:03;22.10;55.90
81161;DHT22;70637;48.514;14.500;2023-07-20T01:45:28;22.10;56.10
81161;DHT22;70637;48.514;14.500;2023-07-20T01:47:54;22.10;56.10
81161;DHT22;70637;48.514;14.500;2023-07-20T01:50:19;22.10;56.20
81161;DHT22;70637;48.514;14.500;2023-07-20T01:52:45;22.10;56.30
81161;DHT22;70637;48.514;14.500;2023-07-20T01:55:11;22.10;56.40
81161;DHT22;70637;48.514;14.500;2023-07-20T01:57:36;22.10;56.60
81161;DHT22;70637;48.514;14.500;2023-07-20T02:00:02;22.00;56.60
81161;DHT22;70637;48.514;14.500;2023-07-20T02:02:28;22.00;56.70
81161;DHT22;70637;48.514;14.500;2023-07-20T02:04:54;21.90;56.70
81161;DHT22;70637;48.514;14.500;2023-07-20T02:07:19;21.90;56.80
81161;DHT22;70637;48.514;14.500;2023-07-20T02:09:45;21.90;56.90
81161;DHT22;70637;48.514;14.500;2023-07-20T02:12:11;21.80;57.00
81161;DHT22;70637;48.514;14.500;2023-07-20T02:14:36;21.80;56.80
81161;DHT22;70637;48.514;14.500;2023-07-20T02:17:02;21.80;56.50
81161;DHT22;70637;48.514;14.500;2023-07-20T02:19:29;21.90;56.30
81161;DHT22;70637;48.514;14.500;2023-07-20T02:21:55;22.00;56.00
81161;DHT22;70637;48.514;14.500;2023-07-20T02:24:21;22.00;55.40
81161;DHT22;70637;48.514;14.500;2023-07-20T02:26:46;22.00;54.40
81161;DHT22;70637;48.514;14.500;2023-07-20T02:29:12;22.00;54.30
81161;DHT22;70637;48.514;14.500;2023-07-20T02:31:38;22.00;53.90
81161;DHT22;70637;48.514;14.500;2023-07-20T02:34:05;21.90;52.50
81161;DHT22;70637;48.514;14.500;2023-07-20T02:36:31;22.00;52.20
81161;DHT22;70637;48.514;14.500;2023-07-20T02:38:58;22.00;52.00
81161;DHT22;70637;48.514;14.500;2023-07-20T02:41:24;22.00;51.30
81161;DHT22;70637;48.514;14.500;2023-07-20T02:43:50;22.10;51.60
81161;DHT22;70637;48.514;14.500;2023-07-20T02:46:15;22.10;51.40
81161;DHT22;70637;48.514;14.500;2023-07-20T02:48:41;22.10;51.00
81161;DHT22;70637;48.514;14.500;2023-07-20T02:51:07;22.20;50.80
81161;DHT22;70637;48.514;14.500;2023-07-20T02:53:33;22.20;50.30
81161;DHT22;70637;48.514;14.500;2023-07-20T02:55:59;22.20;50.30
81161;DHT22;70637;48.514;14.500;2023-07-20T02:58:24;22.30;50.30
81161;DHT22;70637;48.514;14.500;2023-07-20T03:00:50;22.40;49.60
81161;DHT22;70637;48.514;14.500;2023-07-20T03:03:16;22.40;49.60
81161;DHT22;70637;48.514;14.500;2023-07-20T03:05:42;22.40;49.80
81161;DHT22;70637;48.514;14.500;2023-07-20T03:08:08;22.50;49.90
81161;DHT22;70637;48.514;14.500;2023-07-20T03:10:39;22.50;49.80
81161;DHT22;70637;48.514;14.500;2023-07-20T03:13:06;22.50;49.80
81161;DHT22;70637;48.514;14.500;2023-07-20T03:15:32;22.50;49.80
81161;DHT22;70637;48.514;14.500;2023-07-20T03:17:57;22.50;49.70
81161;DHT22;70637;48.514;14.500;2023-07-20T03:20:24;22.60;49.60
81161;DHT22;70637;48.514;14.500;2023-07-20T03:22:49;22.60;49.80
81161;DHT22;70637;48.514;14.500;2023-07-20T03:25:15;22.60;49.90
81161;DHT22;70637;48.514;14.500;2023-07-20T03:27:41;22.60;49.50
81161;DHT22;70637;48.514;14.500;2023-07-20T03:30:07;22.50;49.30
81161;DHT22;70637;48.514;14.500;2023-07-20T03:32:35;22.60;49.50
81161;DHT22;70637;48.514;14.500;2023-07-20T03:35:01;22.60;49.40
81161;DHT22;70637;48.514;14.500;2023-07-20T03:37:27;22.60;49.50
81161;DHT22;70637;48.514;14.500;2023-07-20T03:39:52;22.50;49.60
81161;DHT22;70637;48.514;14.500;2023-07-20T03:42:18;22.50;50.00
81161;DHT22;70637;48.514;14.500;2023-07-20T03:44:44;22.30;50.50
81161;DHT22;70637;48.514;14.500;2023-07-20T03:47:09;22.00;51.00
81161;DHT22;70637;48.514;14.500;2023-07-20T03:49:35;21.80;51.60
81161;DHT22;70637;48.514;14.500;2023-07-20T03:52:01;21.50;52.00
81161;DHT22;70637;48.514;14.500;2023-07-20T03:54:29;21.40;52.10
81161;DHT22;70637;48.514;14.500;2023-07-20T03:56:54;21.20;53.00
81161;DHT22;70637;48.514;14.500;2023-07-20T03:59:20;21.20;53.50
81161;DHT22;70637;48.514;14.500;2023-07-20T04:01:46;21.30;53.60
81161;DHT22;70637;48.514;14.500;2023-07-20T04:04:11;21.20;55.20
81161;DHT22;70637;48.514;14.500;2023-07-20T04:06:37;21.30;53.90
81161;DHT22;70637;48.514;14.500;2023-07-20T04:09:04;21.30;53.50
81161;DHT22;70637;48.514;14.500;2023-07-20T04:11:32;21.20;53.40
81161;DHT22;70637;48.514;14.500;2023-07-20T04:13:58;21.30;53.80
81161;DHT22;70637;48.514;14.500;2023-07-20T04:16:23;21.50;53.40
81161;DHT22;70637;48.514;14.500;2023-07-20T04:18:49;21.70;52.80
81161;DHT22;70637;48.514;14.500;2023-07-20T04:21:15;21.90;52.60
81161;DHT22;70637;48.514;14.500;2023-07-20T04:23:40;22.20;52.20
81161;DHT22;70637;48.514;14.500;2023-07-20T04:26:06;22.40;51.60
81161;DHT22;70637;48.514;14.500;2023-07-20T04:28:32;22.60;51.10
81161;DHT22;70637;48.514;14.500;2023-07-20T04:31:13;22.70;50.80
81161;DHT22;70637;48.514;14.500;2023-07-20T04:33:39;22.80;50.30
81161;DHT22;70637;48.514;14.500;2023-07-20T04:36:05;22.90;50.30
81161;DHT22;70637;48.514;14.500;2023-07-20T04:38:31;23.00;50.00
81161;DHT22;70637;48.514;14.500;2023-07-20T04:40:57;23.00;49.90
81161;DHT22;70637;48.514;14.500;2023-07-20T04:43:22;23.10;49.90
81161;DHT22;70637;48.514;14.500;2023-07-20T04:45:48;23.00;49.90
81161;DHT22;70637;48.514;14.500;2023-07-20T04:48:15;22.90;50.10
81161;DHT22;70637;48.514;14.500;2023-07-20T04:50:42;22.90;49.80
81161;DHT22;70637;48.514;14.500;2023-07-20T04:53:11;23.10;49.80
81161;DHT22;70637;48.514;14.500;2023-07-20T04:55:38;23.00;49.50
81161;DHT22;70637;48.514;14.500;2023-07-20T04:58:05;23.00;49.50
81161;DHT22;70637;48.514;14.500;2023-07-20T05:00:33;23.00;49.70
81161;DHT22;70637;48.514;14.500;2023-07-20T05:02:59;22.90;49.50
81161;DHT22;70637;48.514;14.500;2023-07-20T05:05:25;22.90;49.60
81161;DHT22;70637;48.514;14.500;2023-07-20T05:07:50;23.10;49.70
81161;DHT22;70637;48.514;14.500;2023-07-20T05:10:17;23.10;49.50
81161;DHT22;70637;48.514;14.500;2023-07-20T05:12:43;22.80;49.60
81161;DHT22;70637;48.514;14.500;2023-07-20T05:15:09;22.90;50.10
81161;DHT22;70637;48.514;14.500;2023-07-20T05:17:35;23.10;49.90
81161;DHT22;70637;48.514;14.500;2023-07-20T05:20:00;23.40;49.50
81161;DHT22;70637;48.514;14.500;2023-07-20T05:22:26;23.50;49.10
81161;DHT22;70637;48.514;14.500;2023-07-20T05:24:52;23.70;48.80
81161;DHT22;70637;48.514;14.500;2023-07-20T05:27:17;23.70;48.20
81161;DHT22;70637;48.514;14.500;2023-07-20T05:29:46;23.70;48.50
81161;DHT22;70637;48.514;14.500;2023-07-20T05:32:12;23.80;48.10
81161;DHT22;70637;48.514;14.500;2023-07-20T05:34:38;24.00;47.90
81161;DHT22;70637;48.514;14.500;2023-07-20T05:37:11;23.80;47.70
81161;DHT22;70637;48.514;14.500;2023-07-20T05:39:37;23.50;48.10
81161;DHT22;70637;48.514;14.500;2023-07-20T05:42:02;23.50;48.70
81161;DHT22;70637;48.514;14.500;2023-07-20T05:44:28;23.60;48.20
81161;DHT22;70637;48.514;14.500;2023-07-20T05:46:53;23.90;48.10
81161;DHT22;70637;48.514;14.500;2023-07-20T05:49:19;23.70;47.70
81161;DHT22;70637;48.514;14.500;2023-07-20T05:51:45;23.70;48.60
81161;DHT22;70637;48.514;14.500;2023-07-20T05:54:12;23.80;48.80
81161;DHT22;70637;48.514;14.500;2023-07-20T05:56:37;23.80;48.70
81161;DHT22;70637;48.514;14.500;2023-07-20T05:59:03;23.80;47.80
81161;DHT22;70637;48.514;14.500;2023-07-20T06:01:28;24.00;47.90
81161;DHT22;70637;48.514;14.500;2023-07-20T06:03:54;24.10;47.50
81161;DHT22;70637;48.514;14.500;2023-07-20T06:06:20;24.10;47.10
81161;DHT22;70637;48.514;14.500;2023-07-20T06:08:46;24.10;47.70
81161;DHT22;70637;48.514;14.500;2023-07-20T06:11:11;24.10;47.80
81161;DHT22;70637;48.514;14.500;2023-07-20T06:13:37;24.20;47.70
81161;DHT22;70637;48.514;14.500;2023-07-20T06:16:03;24.00;47.30
81161;DHT22;70637;48.514;14.500;2023-07-20T06:18:29;23.90;47.80
81161;DHT22;70637;48.514;14.500;2023-07-20T06:20:56;24.10;47.90
81161;DHT22;70637;48.514;14.500;2023-07-20T06:23:22;23.90;47.50
81161;DHT22;70637;48.514;14.500;2023-07-20T06:25:48;24.00;47.90
81161;DHT22;70637;48.514;14.500;2023-07-20T06:28:14;24.10;47.70
81161;DHT22;70637;48.514;14.500;2023-07-20T06:30:39;24.10;47.00
81161;DHT22;70637;48.514;14.500;2023-07-20T06:33:05;24.00;47.80
81161;DHT22;70637;48.514;14.500;2023-07-20T06:35:32;24.00;48.40
81161;DHT22;70637;48.514;14.500;2023-07-20T06:37:57;24.00;48.50
81161;DHT22;70637;48.514;14.500;2023-07-20T06:40:25;24.20;48.00
81161;DHT22;70637;48.514;14.500;2023-07-20T06:42:51;24.10;47.60
81161;DHT22;70637;48.514;14.500;2023-07-20T06:45:17;23.80;48.20
81161;DHT22;70637;48.514;14.500;2023-07-20T06:47:42;23.60;48.90
81161;DHT22;70637;48.514;14.500;2023-07-20T06:50:09;23.70;49.00
81161;DHT22;70637;48.514;14.500;2023-07-20T06:52:35;23.60;48.80
81161;DHT22;70637;48.514;14.500;2023-07-20T06:55:00;23.60;48.80
81161;DHT22;70637;48.514;14.500;2023-07-20T06:57:26;23.50;49.00
81161;DHT22;70637;48.514;14.500;2023-07-20T06:59:52;23.50;48.90
81161;DHT22;70637;48.514;14.500;2023-07-20T07:02:18;23.50;48.60
81161;DHT22;70637;48.514;14.500;2023-07-20T07:04:44;23.70;48.60
81161;DHT22;70637;48.514;14.500;2023-07-20T07:07:11;24.00;48.00
81161;DHT22;70637;48.514;14.500;2023-07-20T07:09:36;24.30;47.50
81161;DHT22;70637;48.514;14.500;2023-07-20T07:12:02;24.20;46.50
81161;DHT22;70637;48.514;14.500;2023-07-20T07:14:28;24.20;45.90
81161;DHT22;70637;48.514;14.500;2023-07-20T07:16:53;24.00;46.50
81161;DHT22;70637;48.514;14.500;2023-07-20T07:19:19;24.10;47.00
81161;DHT22;70637;48.514;14.500;2023-07-20T07:21:45;24.10;46.60
81161;DHT22;70637;48.514;14.500;2023-07-20T07:24:11;24.40;46.60
81161;DHT22;70637;48.514;14.500;2023-07-20T07:26:37;24.20;46.30
81161;DHT22;70637;48.514;14.500;2023-07-20T07:29:03;24.30;46.00
81161;DHT22;70637;48.514;14.500;2023-07-20T07:31:29;24.20;46.40
81161;DHT22;70637;48.514;14.500;2023-07-20T07:33:56;24.40;46.10
81161;DHT22;70637;48.514;14.500;2023-07-20T07:36:22;24.50;45.70
81161;DHT22;70637;48.514;14.500;2023-07-20T07:38:49;24.80;45.30
81161;DHT22;70637;48.514;14.500;2023-07-20T07:41:15;24.70;44.50
81161;DHT22;70637;48.514;14.500;2023-07-20T07:43:41;24.90;44.90
81161;DHT22;70637;48.514;14.500;2023-07-20T07:46:07;24.90;45.00
81161;DHT22;70637;48.514;14.500;2023-07-20T07:48:32;25.20;44.50
81161;DHT22;70637;48.514;14.500;2023-07-20T07:50:58;25.30;44.00
81161;DHT22;70637;48.514;14.500;2023-07-20T07:53:24;25.30;44.10
81161;DHT22;70637;48.514;14.500;2023-07-20T07:55:51;25.60;43.80
81161;DHT22;70637;48.514;14.500;2023-07-20T07:58:17;25.80;43.50
81161;DHT22;70637;48.514;14.500;2023-07-20T08:00:43;26.10;43.10
81161;DHT22;70637;48.514;14.500;2023-07-20T08:03:09;26.10;42.50
81161;DHT22;70637;48.514;14.500;2023-07-20T08:05:35;26.10;42.10
81161;DHT22;70637;48.514;14.500;2023-07-20T08:08:02;26.10;42.00
81161;DHT22;70637;48.514;14.500;2023-07-20T08:10:29;26.10;42.30
81161;DHT22;70637;48.514;14.500;2023-07-20T08:12:55;25.70;42.50
81161;DHT22;70637;48.514;14.500;2023-07-20T08:15:21;25.50;42.30
81161;DHT22;70637;48.514;14.500;2023-07-20T08:17:46;25.80;42.60
81161;DHT22;70637;48.514;14.500;2023-07-20T08:20:14;25.70;41.50
81161;DHT22;70637;48.514;14.500;2023-07-20T08:22:41;25.50;41.50
81161;DHT22;70637;48.514;14.500;2023-07-20T08:25:08;25.20;41.40
81161;DHT22;70637;48.514;14.500;2023-07-20T08:27:34;25.30;42.00
81161;DHT22;70637;48.514;14.500;2023-07-20T08:30:00;25.50;41.60
81161;DHT22;70637;48.514;14.500;2023-07-20T08:32:26;25.30;39.90
81161;DHT22;70637;48.514;14.500;2023-07-20T08:34:52;25.00;41.90
81161;DHT22;70637;48.514;14.500;2023-07-20T08:37:17;24.80;41.10
81161;DHT22;70637;48.514;14.500;2023-07-20T08:39:43;25.10;42.20
81161;DHT22;70637;48.514;14.500;2023-07-20T08:42:09;25.60;41.60
81161;DHT22;70637;48.514;14.500;2023-07-20T08:44:37;25.60;41.00
81161;DHT22;70637;48.514;14.500;2023-07-20T08:47:04;25.40;39.30
81161;DHT22;70637;48.514;14.500;2023-07-20T08:49:35;25.50;39.90
81161;DHT22;70637;48.514;14.500;2023-07-20T08:52:00;25.70;39.80
81161;DHT22;70637;48.514;14.500;2023-07-20T08:54:30;26.10;39.70
81161;DHT22;70637;48.514;14.500;2023-07-20T08:56:59;25.80;37.20
81161;DHT22;70637;48.514;14.500;2023-07-20T08:59:28;25.60;37.80
81161;DHT22;70637;48.514;14.500;2023-07-20T09:01:56;25.60;38.30
81161;DHT22;70637;48.514;14.500;2023-07-20T09:04:22;25.50;38.90
81161;DHT22;70637;48.514;14.500;2023-07-20T09:06:49;25.60;39.20
81161;DHT22;70637;48.514;14.500;2023-07-20T09:09:15;25.70;38.80
81161;DHT22;70637;48.514;14.500;2023-07-20T09:11:41;25.50;38.90
81161;DHT22;70637;48.514;14.500;2023-07-20T09:14:09;25.60;38.00
81161;DHT22;70637;48.514;14.500;2023-07-20T09:16:55;25.80;38.50
81161;DHT22;70637;48.514;14.500;2023-07-20T09:19:21;25.60;36.50
81161;DHT22;70637;48.514;14.500;2023-07-20T09:21:51;25.70;37.70
81161;DHT22;70637;48.514;14.500;2023-07-20T09:24:20;26.00;37.50
81161;DHT22;70637;48.514;14.500;2023-07-20T09:26:47;26.20;36.50
81161;DHT22;70637;48.514;14.500;2023-07-20T09:29:14;26.00;36.00
81161;DHT22;70637;48.514;14.500;2023-07-20T09:32:04;26.10;36.80
81161;DHT22;70637;48.514;14.500;2023-07-20T09:34:30;26.30;36.30
81161;DHT22;70637;48.514;14.500;2023-07-20T09:37:00;25.80;35.80
81161;DHT22;70637;48.514;14.500;2023-07-20T09:39:27;25.80;35.80
81161;DHT22;70637;48.514;14.500;2023-07-20T09:41:52;25.80;36.40
81161;DHT22;70637;48.514;14.500;2023-07-20T09:44:19;26.10;37.60
81161;DHT22;70637;48.514;14.500;2023-07-20T09:46:50;26.30;36.90
81161;DHT22;70637;48.514;14.500;2023-07-20T09:49:17;26.30;35.50
81161;DHT22;70637;48.514;14.500;2023-07-20T09:51:44;26.20;34.70
81161;DHT22;70637;48.514;14.500;2023-07-20T09:54:11;26.20;35.60
81161;DHT22;70637;48.514;14.500;2023-07-20T09:56:39;26.30;36.00
81161;DHT22;70637;48.514;14.500;2023-07-20T09:59:06;26.60;35.30
81161;DHT22;70637;48.514;14.500;2023-07-20T10:01:33;26.70;35.20
81161;DHT22;70637;48.514;14.500;2023-07-20T10:04:03;26.70;35.50
81161;DHT22;70637;48.514;14.500;2023-07-20T10:06:32;26.90;34.60
81161;DHT22;70637;48.514;14.500;2023-07-20T10:09:01;26.90;34.20
81161;DHT22;70637;48.514;14.500;2023-07-20T10:11:31;27.00;34.10
81161;DHT22;70637;48.514;14.500;2023-07-20T10:14:03;27.20;33.50
81161;DHT22;70637;48.514;14.500;2023-07-20T10:16:34;26.80;31.40
81161;DHT22;70637;48.514;14.500;2023-07-20T10:19:51;26.90;33.00
81161;DHT22;70637;48.514;14.500;2023-07-20T10:22:00;26.90;31.50
81161;DHT22;70637;48.514;14.500;2023-07-20T10:24:28;26.70;33.00
81161;DHT22;70637;48.514;14.500;2023-07-20T10:26:55;26.60;31.30
81161;DHT22;70637;48.514;14.500;2023-07-20T10:29:22;26.50;33.60
81161;DHT22;70637;48.514;14.500;2023-07-20T10:31:48;26.70;32.80
81161;DHT22;70637;48.514;14.500;2023-07-20T10:34:15;27.10;33.80
81161;DHT22;70637;48.514;14.500;2023-07-20T10:36:45;27.60;32.60
81161;DHT22;70637;48.514;14.500;2023-07-20T10:39:31;27.80;32.20
81161;DHT22;70637;48.514;14.500;2023-07-20T10:42:07;28.00;31.50
81161;DHT22;70637;48.514;14.500;2023-07-20T10:44:33;27.80;31.90
81161;DHT22;70637;48.514;14.500;2023-07-20T10:47:08;27.50;32.40
81161;DHT22;70637;48.514;14.500;2023-07-20T10:49:34;27.90;32.50
81161;DHT22;70637;48.514;14.500;2023-07-20T10:52:04;28.00;32.50
81161;DHT22;70637;48.514;14.500;2023-07-20T10:56:58;27.70;31.30
81161;DHT22;70637;48.514;14.500;2023-07-20T10:59:42;27.80;32.00
81161;DHT22;70637;48.514;14.500;2023-07-20T11:02:09;28.00;31.70
81161;DHT22;70637;48.514;14.500;2023-07-20T11:04:49;28.20;30.80
81161;DHT22;70637;48.514;14.500;2023-07-20T11:07:16;28.20;31.20
81161;DHT22;70637;48.514;14.500;2023-07-20T11:09:43;28.50;30.90
81161;DHT22;70637;48.514;14.500;2023-07-20T11:12:13;28.50;30.20
81161;DHT22;70637;48.514;14.500;2023-07-20T11:15:02;28.60;30.40
81161;DHT22;70637;48.514;14.500;2023-07-20T11:17:31;28.60;30.30
81161;DHT22;70637;48.514;14.500;2023-07-20T11:19:58;28.80;30.40
81161;DHT22;70637;48.514;14.500;2023-07-20T11:22:26;29.00;30.70
81161;DHT22;70637;48.514;14.500;2023-07-20T11:24:55;29.20;30.00
81161;DHT22;70637;48.514;14.500;2023-07-20T11:27:21;29.40;29.70
81161;DHT22;70637;48.514;14.500;2023-07-20T11:29:50;29.70;29.90
81161;DHT22;70637;48.514;14.500;2023-07-20T11:32:24;30.00;28.90
81161;DHT22;70637;48.514;14.500;2023-07-20T11:34:50;30.00;28.10
81161;DHT22;70637;48.514;14.500;2023-07-20T11:37:19;29.80;27.00
81161;DHT22;70637;48.514;14.500;2023-07-20T11:39:45;29.00;28.00
81161;DHT22;70637;48.514;14.500;2023-07-20T11:42:12;28.90;29.00
81161;DHT22;70637;48.514;14.500;2023-07-20T11:44:38;29.10;28.80
81161;DHT22;70637;48.514;14.500;2023-07-20T11:47:05;29.40;28.70
81161;DHT22;70637;48.514;14.500;2023-07-20T11:49:36;29.70;28.40
81161;DHT22;70637;48.514;14.500;2023-07-20T11:52:04;29.80;28.20
81161;DHT22;70637;48.514;14.500;2023-07-20T11:54:31;30.00;27.90
81161;DHT22;70637;48.514;14.500;2023-07-20T11:57:00;30.10;28.10
81161;DHT22;70637;48.514;14.500;2023-07-20T11:59:26;30.00;27.70
81161;DHT22;70637;48.514;14.500;2023-07-20T12:01:52;29.90;28.10
81161;DHT22;70637;48.514;14.500;2023-07-20T12:04:18;30.10;28.60
81161;DHT22;70637;48.514;14.500;2023-07-20T12:06:45;30.20;27.70
81161;DHT22;70637;48.514;14.500;2023-07-20T12:09:16;30.20;27.30
81161;DHT22;70637;48.514;14.500;2023-07-20T12:11:44;30.40;28.20
81161;DHT22;70637;48.514;14.500;2023-07-20T12:14:12;30.70;27.90
81161;DHT22;70637;48.514;14.500;2023-07-20T12:16:38;30.70;27.50
81161;DHT22;70637;48.514;14.500;2023-07-20T12:19:08;30.60;26.70
81161;DHT22;70637;48.514;14.500;2023-07-20T12:21:36;29.90;26.20
81161;DHT22;70637;48.514;14.500;2023-07-20T12:24:03;29.90;26.30
81161;DHT22;70637;48.514;14.500;2023-07-20T12:26:29;30.20;26.20
81161;DHT22;70637;48.514;14.500;2023-07-20T12:28:56;30.20;26.20
81161;DHT22;70637;48.514;14.500;2023-07-20T12:31:22;30.40;26.00
81161;DHT22;70637;48.514;14.500;2023-07-20T12:33:49;29.90;25.80
81161;DHT22;70637;48.514;14.500;2023-07-20T12:36:15;29.50;26.20
81161;DHT22;70637;48.514;14.500;2023-07-20T12:38:40;29.80;27.40
81161;DHT22;70637;48.514;14.500;2023-07-20T12:41:07;30.00;26.00
81161;DHT22;70637;48.514;14.500;2023-07-20T12:43:33;29.60;25.70
81161;DHT22;70637;48.514;14.500;2023-07-20T12:45:59;29.60;26.00
81161;DHT22;70637;48.514;14.500;2023-07-20T12:48:25;29.40;26.60
81161;DHT22;70637;48.514;14.500;2023-07-20T12:50:51;29.80;26.30
81161;DHT22;70637;48.514;14.500;2023-07-20T12:53:17;29.00;25.40
81161;DHT22;70637;48.514;14.500;2023-07-20T12:55:43;29.10;25.80
81161;DHT22;70637;48.514;14.500;2023-07-20T12:58:09;29.50;26.50
81161;DHT22;70637;48.514;14.500;2023-07-20T13:00:35;29.90;25.80
81161;DHT22;70637;48.514;14.500;2023-07-20T13:03:01;29.60;26.10
81161;DHT22;70637;48.514;14.500;2023-07-20T13:05:31;29.90;26.50
81161;DHT22;70637;48.514;14.500;2023-07-20T13:07:57;30.60;26.50
81161;DHT22;70637;48.514;14.500;2023-07-20T13:10:24;31.00;26.30
81161;DHT22;70637;48.514;14.500;2023-07-20T13:12:50;31.10;24.00
81161;DHT22;70637;48.514;14.500;2023-07-20T13:15:17;30.40;25.00
81161;DHT22;70637;48.514;14.500;2023-07-20T13:17:43;30.20;25.10
81161;DHT22;70637;48.514;14.500;2023-07-20T13:20:09;30.20;25.10
81161;DHT22;70637;48.514;14.500;2023-07-20T13:22:39;30.80;25.10
81161;DHT22;70637;48.514;14.500;2023-07-20T13:25:08;30.40;23.80
81161;DHT22;70637;48.514;14.500;2023-07-20T13:27:35;29.50;25.00
81161;DHT22;70637;48.514;14.500;2023-07-20T13:30:02;29.80;25.20
81161;DHT22;70637;48.514;14.500;2023-07-20T13:32:32;29.20;25.30
81161;DHT22;70637;48.514;14.500;2023-07-20T13:34:57;29.50;26.30
81161;DHT22;70637;48.514;14.500;2023-07-20T13:37:24;30.10;25.10
81161;DHT22;70637;48.514;14.500;2023-07-20T13:39:49;30.30;25.60
81161;DHT22;70637;48.514;14.500;2023-07-20T13:42:15;30.60;25.60
81161;DHT22;70637;48.514;14.500;2023-07-20T13:44:41;30.60;24.40
81161;DHT22;70637;48.514;14.500;2023-07-20T13:47:07;30.90;25.00
81161;DHT22;70637;48.514;14.500;2023-07-20T13:49:32;31.00;24.40
81161;DHT22;70637;48.514;14.500;2023-07-20T13:51:58;30.60;24.30
81161;DHT22;70637;48.514;14.500;2023-07-20T13:54:24;30.70;25.80
81161;DHT22;70637;48.514;14.500;2023-07-20T13:56:50;30.90;23.20
81161;DHT22;70637;48.514;14.500;2023-07-20T13:59:17;30.60;24.20
81161;DHT22;70637;48.514;14.500;2023-07-20T14:01:43;30.30;23.90
81161;DHT22;70637;48.514;14.500;2023-07-20T14:04:08;30.30;24.40
81161;DHT22;70637;48.514;14.500;2023-07-20T14:06:35;31.00;24.10
81161;DHT22;70637;48.514;14.500;2023-07-20T14:09:01;30.90;23.30
81161;DHT22;70637;48.514;14.500;2023-07-20T14:11:27;30.60;24.20
81161;DHT22;70637;48.514;14.500;2023-07-20T14:13:53;31.20;23.50
81161;DHT22;70637;48.514;14.500;2023-07-20T14:16:19;32.00;23.60
81161;DHT22;70637;48.514;14.500;2023-07-20T14:18:45;32.70;23.50
81161;DHT22;70637;48.514;14.500;2023-07-20T14:21:18;33.80;22.70
81161;DHT22;70637;48.514;14.500;2023-07-20T14:23:48;35.40;21.80
81161;DHT22;70637;48.514;14.500;2023-07-20T14:26:15;35.90;20.00
81161;DHT22;70637;48.514;14.500;2023-07-20T14:28:41;36.20;19.90
81161;DHT22;70637;48.514;14.500;2023-07-20T14:31:07;38.30;18.90
81161;DHT22;70637;48.514;14.500;2023-07-20T14:33:35;37.70;17.90
81161;DHT22;70637;48.514;14.500;2023-07-20T14:36:01;36.60;18.60
81161;DHT22;70637;48.514;14.500;2023-07-20T14:38:28;36.00;19.30
81161;DHT22;70637;48.514;14.500;2023-07-20T14:40:54;35.20;19.90
81161;DHT22;70637;48.514;14.500;2023-07-20T14:43:20;35.00;20.30
81161;DHT22;70637;48.514;14.500;2023-07-20T14:45:46;34.10;19.60
81161;DHT22;70637;48.514;14.500;2023-07-20T14:48:12;34.30;19.80
81161;DHT22;70637;48.514;14.500;2023-07-20T14:50:37;34.10;20.40
81161;DHT22;70637;48.514;14.500;2023-07-20T14:53:03;33.90;20.60
81161;DHT22;70637;48.514;14.500;2023-07-20T14:55:28;36.30;19.60
81161;DHT22;70637;48.514;14.500;2023-07-20T14:57:54;36.90;17.40
81161;DHT22;70637;48.514;14.500;2023-07-20T15:00:20;35.10;18.00
81161;DHT22;70637;48.514;14.500;2023-07-20T15:02:46;33.70;19.70
81161;DHT22;70637;48.514;14.500;2023-07-20T15:05:11;34.90;19.40
81161;DHT22;70637;48.514;14.500;2023-07-20T15:07:37;35.00;19.60
81161;DHT22;70637;48.514;14.500;2023-07-20T15:10:04;36.80;19.10
81161;DHT22;70637;48.514;14.500;2023-07-20T15:12:33;36.80;18.20
81161;DHT22;70637;48.514;14.500;2023-07-20T15:15:10;38.90;18.30
81161;DHT22;70637;48.514;14.500;2023-07-20T15:17:37;41.70;16.20
81161;DHT22;70637;48.514;14.500;2023-07-20T15:20:04;41.90;15.60
81161;DHT22;70637;48.514;14.500;2023-07-20T15:22:33;43.90;14.60
81161;DHT22;70637;48.514;14.500;2023-07-20T15:24:59;45.30;13.70